Santa Margherita — V7JA2 — position and weather

sailwx.info

Track history (hours):
 
Tides and Currents Weather Stations Pressure Air Temp Water Temp Dewpoint Dewpoint Depression Visibility Wind Speed Wind Dir Waves Ship Positions

Santa Margherita

Last reported at 2016-Aug-19 20:34 UTC. Time now 2016-Aug-31 23:35 UTC.
Position N 01°15' E 104°01'.
Warning: this ship's position is 12 days out of date.

Length 190 m; draft 12.3 m.

Type: Cargo ship. MMSI: 538090191.

Date/timePositionNaut miles runAvg speedWind from/ knotsBaromVisibWave heightAir tempDewpointWater temp
2016-Aug-19 20:34N 01°15' E 104°01'5 4.8
2016-Aug-19 19:33N 01°17' E 103°57'0 0.4
2016-Aug-19 18:21N 01°17' E 103°57'0 0.1
2016-Aug-19 14:30N 01°17' E 103°57'0 0.0
2016-Aug-19 13:33N 01°17' E 103°57'0 0.0
2016-Aug-19 12:33N 01°17' E 103°57'0 0.0
2016-Aug-19 11:33N 01°17' E 103°57'0 0.0
2016-Aug-19 10:33N 01°17' E 103°57'0 0.1
2016-Aug-19 09:21N 01°17' E 103°57'0 0.1
2016-Aug-19 08:15N 01°17' E 103°57'0 0.0
2016-Aug-19 07:33N 01°17' E 103°57'0 0.0
2016-Aug-19 06:32N 01°17' E 103°57'0 0.1
2016-Aug-19 05:32N 01°17' E 103°57'0 0.1
2016-Aug-19 04:32N 01°17' E 103°57'0 0.1
2016-Aug-19 03:32N 01°17' E 103°57'0 0.1
2016-Aug-19 02:29N 01°17' E 103°57'2 1.9
2016-Aug-19 01:33N 01°16' E 103°57'6 5.9
2016-Aug-19 00:33N 01°12' E 103°52'9 8.7
2016-Aug-18 23:33N 01°07' E 103°45'85 9.4
2016-Aug-18 14:31N 01°47' E 102°30'1111.9
2016-Aug-18 13:33N 01°51' E 102°20'  
Track history (hours):
 
Tides and Currents Weather Stations Pressure Air Temp Water Temp Dewpoint Dewpoint Depression Visibility Wind Speed Wind Dir Waves Ship Positions

Santa Margherita

Last reported at 2016-Aug-19 20:34 UTC. Time now 2016-Aug-31 23:35 UTC.
Position N 01°15' E 104°01'.
Warning: this ship's position is 12 days out of date.

Length 190 m; draft 12.3 m.

Type: Cargo ship. MMSI: 538090191.

Date/timePositionNaut miles runAvg speedWind from/ knotsBaromVisibWave heightAir tempDewpointWater temp
2016-Aug-19 20:34N 01°15' E 104°01'5 4.8
2016-Aug-19 19:33N 01°17' E 103°57'0 0.4
2016-Aug-19 18:21N 01°17' E 103°57'0 0.1
2016-Aug-19 14:30N 01°17' E 103°57'0 0.0
2016-Aug-19 13:33N 01°17' E 103°57'0 0.0
2016-Aug-19 12:33N 01°17' E 103°57'0 0.0
2016-Aug-19 11:33N 01°17' E 103°57'0 0.0
2016-Aug-19 10:33N 01°17' E 103°57'0 0.1
2016-Aug-19 09:21N 01°17' E 103°57'0 0.1
2016-Aug-19 08:15N 01°17' E 103°57'0 0.0
2016-Aug-19 07:33N 01°17' E 103°57'0 0.0
2016-Aug-19 06:32N 01°17' E 103°57'0 0.1
2016-Aug-19 05:32N 01°17' E 103°57'0 0.1
2016-Aug-19 04:32N 01°17' E 103°57'0 0.1
2016-Aug-19 03:32N 01°17' E 103°57'0 0.1
2016-Aug-19 02:29N 01°17' E 103°57'2 1.9
2016-Aug-19 01:33N 01°16' E 103°57'6 5.9
2016-Aug-19 00:33N 01°12' E 103°52'9 8.7
2016-Aug-18 23:33N 01°07' E 103°45'85 9.4
2016-Aug-18 14:31N 01°47' E 102°30'1111.9
2016-Aug-18 13:33N 01°51' E 102°20'  

Dump ship's entire track history